Flight Briefing for CMB813

Departure Arrival
Joint Base McGuire Dix Lakehurst (KWRI)
Click to view FAA NOTAMS
RAF Mildenhall (EGUN)
Click to view FAA NOTAMS
Departure Time Arrival Time
N/A N/A
Aircraft Distance
B767-300BDSF 3069nm
Departure METAR Arrival METAR
KWRI 250156Z AUTO 05009KT 10SM BKN180 19/11 A3009 RMK AO2 SLP188 T01870108 EGUN 250156Z AUTO 28005KT 9999 BKN110 11/11 A3004 RMK AO2 SLP176 T01090109 $
Suggested Route





View recent IFR Routes data
Notes
USTRANSCOM CONTRACT FLIGHT

Charts and Procedures

Charts for KWRI
No chart available
Charts for EGUN
No chart available

Windy.com Weather Map